Terminal Aerodrome Forecast
Issued by NWS North Platte, NE

Home | Current Version | Previous Version | Graphics & Text | Print | Product List | Glossary On
Versions: 1 2 3 4 5 6 7 8 9 10 11 12 13 14 15 16 17
000
FTUS43 KLBF 212300
TAFVTN
TAF
KVTN 212320Z 2200/2224 VRB03KT P6SM SCT120 BKN200
     FM221600 23012KT P6SM SCT100
     FM221800 23012G21KT P6SM SCT100=

USA.gov is the U.S. government's official web portal to all federal, state and local government web resources and services.